Time;durP1;ratioP1;P1;durP2;ratioP2;P2;SDS_P1;SDS_P2;PMS_P1;PMS_P2;Temp;Humidity;BMP_temperature;BMP_pressure;BME280_temperature;BME280_humidity;BME280_pressure;Samples;Min_cycle;Max_cycle;Signal;HPM_P1;HPM_P2
2021/10/17 00:01:13;;;;;;;12.93;7.75;;;3.90;99.90;;;;;;4983910;28;20397;-81
2021/10/17 00:03:39;;;;;;;16.60;8.07;;;4.00;99.90;;;;;;4980218;28;20030;-80
2021/10/17 00:06:04;;;;;;;15.50;10.00;;;3.80;99.90;;;;;;4983307;28;20050;-80
2021/10/17 00:08:30;;;;;;;19.30;8.60;;;3.70;99.90;;;;;;4953907;28;20055;-81
2021/10/17 00:10:56;;;;;;;18.15;8.73;;;3.70;99.90;;;;;;4982272;28;20041;-80
2021/10/17 00:13:21;;;;;;;21.13;9.40;;;3.70;99.90;;;;;;4967177;28;20534;-80
2021/10/17 00:15:47;;;;;;;16.45;9.05;;;3.50;99.90;;;;;;4944040;28;20074;-81
2021/10/17 00:18:12;;;;;;;18.58;10.23;;;3.30;99.90;;;;;;4955900;28;20071;-80
2021/10/17 00:20:38;;;;;;;20.65;9.82;;;3.30;99.90;;;;;;4971637;28;20072;-81
2021/10/17 00:23:04;;;;;;;15.93;9.43;;;3.40;99.90;;;;;;5004222;28;20036;-80
2021/10/17 00:25:30;;;;;;;17.30;9.65;;;3.30;99.90;;;;;;4995948;28;20408;-81
2021/10/17 00:27:55;;;;;;;14.90;9.80;;;3.20;99.90;;;;;;4977416;28;20034;-80
2021/10/17 00:30:21;;;;;;;20.98;10.32;;;3.10;99.90;;;;;;4953056;28;20045;-80
2021/10/17 00:32:47;;;;;;;22.08;10.95;;;3.20;99.90;;;;;;4948314;28;20022;-80
2021/10/17 00:35:13;;;;;;;24.70;10.65;;;3.10;99.90;;;;;;4960076;28;20048;-81
2021/10/17 00:37:39;;;;;;;20.35;11.48;;;3.10;99.90;;;;;;4987726;28;20049;-81
2021/10/17 00:40:12;;;;;;;17.20;9.38;;;3.00;99.90;;;;;;4992839;28;20447;-81
2021/10/17 00:42:38;;;;;;;17.67;9.77;;;3.10;99.90;;;;;;4986418;28;20054;-81
2021/10/17 00:45:09;;;;;;;21.00;10.43;;;3.10;99.90;;;;;;4976530;28;20046;-81
2021/10/17 00:47:35;;;;;;;24.90;10.05;;;3.00;99.90;;;;;;4986233;28;20057;-81
2021/10/17 00:50:01;;;;;;;21.38;11.20;;;2.90;99.90;;;;;;4948615;28;20055;-81
2021/10/17 00:52:26;;;;;;;16.17;8.85;;;3.00;99.90;;;;;;4970536;28;20040;-81
2021/10/17 00:54:52;;;;;;;28.23;10.32;;;3.30;99.90;;;;;;4977936;28;20033;-81
2021/10/17 00:57:17;;;;;;;17.55;10.60;;;3.40;99.90;;;;;;4992598;28;20027;-82
2021/10/17 00:59:46;;;;;;;19.35;10.50;;;3.30;99.90;;;;;;4962887;28;20505;-81
2021/10/17 01:02:11;;;;;;;27.58;10.18;;;3.10;99.90;;;;;;4995355;28;20026;-81
2021/10/17 01:04:38;;;;;;;14.27;8.82;;;3.10;99.90;;;;;;4993014;28;20528;-82
2021/10/17 01:07:07;;;;;;;19.20;9.30;;;3.30;99.90;;;;;;5004305;28;20026;-82
2021/10/17 01:09:34;;;;;;;16.77;10.27;;;3.40;99.90;;;;;;5003411;28;20041;-82
2021/10/17 01:11:59;;;;;;;12.18;7.75;;;3.40;99.90;;;;;;4979797;28;20022;-82
2021/10/17 01:14:25;;;;;;;19.08;9.52;;;3.50;99.90;;;;;;4972105;28;20030;-82
2021/10/17 01:16:51;;;;;;;13.93;8.35;;;3.50;99.90;;;;;;4956157;28;20026;-82
2021/10/17 01:19:16;;;;;;;14.25;7.90;;;3.60;99.90;;;;;;5004808;28;20391;-82
2021/10/17 01:21:43;;;;;;;12.30;7.25;;;3.50;99.90;;;;;;4983296;28;20124;-81
2021/10/17 01:24:08;;;;;;;8.23;6.10;;;3.60;99.90;;;;;;5021903;28;20112;-81
2021/10/17 01:26:34;;;;;;;15.20;7.47;;;3.80;99.90;;;;;;5007208;28;20110;-82
2021/10/17 01:28:59;;;;;;;22.45;8.27;;;3.80;99.90;;;;;;4984314;28;20042;-82
2021/10/17 01:31:39;;;;;;;20.73;9.43;;;3.50;99.90;;;;;;5006856;28;20440;-81
2021/10/17 01:34:05;;;;;;;21.13;9.63;;;3.30;99.90;;;;;;4986443;28;20044;-81
2021/10/17 01:36:31;;;;;;;16.23;7.68;;;3.20;99.90;;;;;;4972275;28;20040;-82
2021/10/17 01:38:57;;;;;;;11.43;6.57;;;3.20;99.90;;;;;;4972537;28;20386;-82
2021/10/17 01:41:23;;;;;;;15.20;6.45;;;3.40;99.90;;;;;;4988713;28;20037;-82
2021/10/17 01:43:48;;;;;;;14.40;7.05;;;3.40;99.90;;;;;;4964814;28;20125;-82
2021/10/17 01:46:14;;;;;;;12.60;7.30;;;3.60;99.90;;;;;;5003917;28;20367;-81
2021/10/17 01:48:39;;;;;;;16.23;7.97;;;3.40;99.90;;;;;;4985665;28;20066;-82
2021/10/17 01:51:05;;;;;;;20.35;9.57;;;3.30;99.90;;;;;;4981868;28;20038;-82
2021/10/17 01:53:31;;;;;;;13.63;8.75;;;3.20;99.90;;;;;;4965239;28;20030;-82
2021/10/17 01:55:57;;;;;;;11.55;8.00;;;3.00;99.90;;;;;;4982855;28;20031;-81
2021/10/17 01:58:23;;;;;;;14.10;7.85;;;3.00;99.90;;;;;;4984453;28;20033;-82
2021/10/17 02:00:48;;;;;;;16.10;8.35;;;3.00;99.90;;;;;;4987320;28;20070;-82
2021/10/17 02:03:14;;;;;;;13.70;8.98;;;3.00;99.90;;;;;;4986263;28;20371;-81
2021/10/17 02:05:39;;;;;;;12.68;7.72;;;3.00;99.90;;;;;;5002636;28;20041;-81
2021/10/17 02:08:05;;;;;;;13.05;7.10;;;3.00;99.90;;;;;;4984078;28;20105;-81
2021/10/17 02:10:30;;;;;;;14.05;7.95;;;3.20;99.90;;;;;;5004226;28;20068;-82
2021/10/17 02:12:56;;;;;;;16.13;8.63;;;3.30;99.90;;;;;;5002830;28;20413;-82
2021/10/17 02:15:22;;;;;;;15.02;8.38;;;3.20;99.90;;;;;;5005988;28;20407;-82
2021/10/17 02:17:47;;;;;;;13.93;8.98;;;3.00;99.90;;;;;;4986533;28;20022;-81
2021/10/17 02:20:13;;;;;;;19.77;8.77;;;2.90;99.90;;;;;;5004734;28;20041;-82
2021/10/17 02:22:38;;;;;;;15.75;8.98;;;2.90;99.90;;;;;;4986868;28;20037;-81
2021/10/17 02:25:04;;;;;;;16.00;8.98;;;2.90;99.90;;;;;;4983314;28;20023;-81
2021/10/17 02:27:30;;;;;;;20.45;8.73;;;2.90;99.90;;;;;;4982354;28;20387;-81
2021/10/17 02:29:55;;;;;;;24.42;9.52;;;2.90;99.90;;;;;;5003302;28;20446;-81
2021/10/17 02:32:21;;;;;;;12.00;6.45;;;2.90;99.90;;;;;;4987359;28;20018;-81
2021/10/17 02:34:46;;;;;;;10.32;6.65;;;3.00;99.90;;;;;;4995742;28;20019;-82
2021/10/17 02:37:12;;;;;;;17.13;9.15;;;3.00;99.90;;;;;;4977109;28;20085;-82
2021/10/17 02:39:38;;;;;;;16.08;9.23;;;3.00;99.90;;;;;;4985940;28;20512;-81
2021/10/17 02:42:03;;;;;;;14.18;8.88;;;3.00;99.90;;;;;;4987994;28;20030;-81
2021/10/17 02:44:29;;;;;;;16.55;10.10;;;3.00;99.90;;;;;;4968674;28;20027;-81
2021/10/17 02:46:54;;;;;;;18.20;8.98;;;2.90;99.90;;;;;;4953983;28;20081;-84
2021/10/17 02:49:20;;;;;;;15.95;9.18;;;2.90;99.90;;;;;;4964863;28;20395;-83
2021/10/17 02:51:45;;;;;;;15.13;9.82;;;3.00;99.90;;;;;;4970986;28;20027;-84
2021/10/17 02:54:12;;;;;;;20.00;9.55;;;3.10;99.90;;;;;;4967645;28;20089;-85
2021/10/17 02:56:38;;;;;;;22.55;10.23;;;3.10;99.90;;;;;;4982839;28;20059;-85
2021/10/17 02:59:04;;;;;;;18.40;9.98;;;3.10;99.90;;;;;;4954396;28;20073;-85
2021/10/17 03:01:29;;;;;;;20.77;10.05;;;3.10;99.90;;;;;;4980456;28;20034;-84
2021/10/17 03:03:55;;;;;;;22.85;9.75;;;3.20;99.90;;;;;;4971246;28;20034;-85
2021/10/17 03:06:25;;;;;;;13.10;7.90;;;3.20;99.90;;;;;;5003038;28;20093;-85
2021/10/17 03:08:51;;;;;;;18.85;9.90;;;3.30;99.90;;;;;;4976220;28;20153;-85
2021/10/17 03:11:16;;;;;;;16.20;8.45;;;3.40;99.90;;;;;;4992732;28;20573;-85
2021/10/17 03:13:42;;;;;;;17.85;9.18;;;3.40;99.90;;;;;;4993155;28;20477;-85
2021/10/17 03:16:08;;;;;;;16.08;8.38;;;3.50;99.90;;;;;;4973311;28;20465;-85
2021/10/17 03:18:33;;;;;;;13.90;8.73;;;3.50;99.90;;;;;;4969972;28;20041;-85
2021/10/17 03:20:59;;;;;;;15.60;9.50;;;3.60;99.90;;;;;;4962003;28;20117;-85
2021/10/17 03:23:25;;;;;;;12.05;7.78;;;3.70;99.90;;;;;;4968856;28;20022;-85
2021/10/17 03:25:50;;;;;;;12.65;8.77;;;3.80;99.90;;;;;;4972752;28;20065;-86
2021/10/17 03:28:16;;;;;;;13.23;8.13;;;3.80;99.90;;;;;;4981849;28;20078;-85
2021/10/17 03:30:41;;;;;;;13.05;8.60;;;3.80;99.90;;;;;;4970474;28;20039;-84
2021/10/17 03:33:07;;;;;;;11.30;7.43;;;3.80;99.90;;;;;;4960471;28;20376;-85
2021/10/17 03:35:33;;;;;;;12.68;8.60;;;3.80;99.90;;;;;;4978996;28;20117;-84
2021/10/17 03:37:58;;;;;;;17.08;9.30;;;3.90;99.90;;;;;;4964757;28;20068;-85
2021/10/17 03:40:24;;;;;;;20.27;8.25;;;3.90;99.90;;;;;;4983308;28;20132;-85
2021/10/17 03:42:49;;;;;;;16.83;7.93;;;3.90;99.90;;;;;;4982004;28;20121;-84
2021/10/17 03:45:15;;;;;;;16.48;10.05;;;3.90;99.90;;;;;;4961783;28;20077;-85
2021/10/17 03:47:40;;;;;;;16.60;9.95;;;4.00;99.90;;;;;;4950437;28;20060;-86
2021/10/17 03:50:06;;;;;;;19.42;9.80;;;4.00;99.90;;;;;;4971156;28;20034;-85
2021/10/17 03:52:33;;;;;;;11.43;7.10;;;4.00;99.90;;;;;;4971025;28;20118;-85
2021/10/17 03:54:59;;;;;;;15.27;9.88;;;4.00;99.90;;;;;;4972196;28;20035;-85
2021/10/17 03:57:24;;;;;;;16.83;10.50;;;4.00;99.90;;;;;;4984768;28;20320;-85
2021/10/17 03:59:50;;;;;;;20.15;10.48;;;4.00;99.90;;;;;;4983323;28;20537;-85
2021/10/17 04:02:15;;;;;;;21.25;11.07;;;4.10;99.90;;;;;;4999357;28;20451;-85
2021/10/17 04:04:41;;;;;;;14.90;8.85;;;4.00;99.90;;;;;;5004300;28;20055;-86
2021/10/17 04:07:07;;;;;;;12.38;8.52;;;4.10;99.90;;;;;;5020057;28;20389;-85
2021/10/17 04:09:32;;;;;;;14.85;8.32;;;4.20;99.90;;;;;;4989747;28;20031;-86
2021/10/17 04:11:58;;;;;;;14.77;6.55;;;4.30;99.90;;;;;;4972006;28;20051;-86
2021/10/17 04:14:24;;;;;;;10.20;6.65;;;4.40;99.90;;;;;;4951606;28;20034;-86
2021/10/17 04:16:49;;;;;;;17.67;7.82;;;4.50;99.90;;;;;;4959215;28;20057;-85
2021/10/17 04:19:15;;;;;;;17.02;10.32;;;4.40;99.90;;;;;;4980314;28;20037;-85
2021/10/17 04:21:40;;;;;;;17.05;10.32;;;4.40;99.90;;;;;;4950615;28;20562;-85
2021/10/17 04:24:06;;;;;;;18.38;10.93;;;4.30;99.90;;;;;;4953368;28;20501;-85
2021/10/17 04:26:33;;;;;;;22.15;11.23;;;4.30;99.90;;;;;;4982190;28;20481;-85
2021/10/17 04:28:58;;;;;;;19.88;11.05;;;4.20;99.90;;;;;;4983034;28;20039;-86
2021/10/17 04:31:24;;;;;;;29.90;13.00;;;4.20;99.90;;;;;;4982447;28;20498;-85
2021/10/17 04:33:49;;;;;;;19.65;9.77;;;4.30;99.90;;;;;;4965153;28;20086;-85
2021/10/17 04:36:15;;;;;;;22.70;12.57;;;4.30;99.90;;;;;;4986069;28;20030;-86
2021/10/17 04:38:40;;;;;;;17.58;10.57;;;4.40;99.90;;;;;;4965555;28;20053;-85
2021/10/17 04:41:06;;;;;;;10.65;8.20;;;4.40;99.90;;;;;;4952578;28;20041;-85
2021/10/17 04:43:32;;;;;;;24.50;11.63;;;4.60;99.90;;;;;;4962834;28;20026;-86
2021/10/17 04:45:57;;;;;;;13.05;8.68;;;4.60;99.90;;;;;;4967377;28;20037;-85
2021/10/17 04:48:23;;;;;;;14.80;8.10;;;4.60;99.90;;;;;;4962311;28;20138;-86
2021/10/17 04:50:49;;;;;;;14.63;8.55;;;4.70;99.90;;;;;;4995247;28;20500;-85
2021/10/17 04:53:14;;;;;;;23.10;12.80;;;4.70;99.90;;;;;;4998850;28;20088;-85
2021/10/17 04:55:40;;;;;;;20.67;8.80;;;4.60;99.90;;;;;;4983693;28;20027;-86
2021/10/17 04:58:06;;;;;;;14.77;9.48;;;4.60;99.90;;;;;;4999767;28;20113;-85
2021/10/17 05:00:31;;;;;;;15.70;9.35;;;4.60;99.90;;;;;;4986545;28;20103;-86
2021/10/17 05:02:57;;;;;;;16.60;8.43;;;4.80;99.90;;;;;;4997409;28;20037;-86
2021/10/17 05:05:23;;;;;;;21.55;9.65;;;4.80;99.90;;;;;;5002201;28;20038;-85
2021/10/17 05:07:48;;;;;;;17.23;9.70;;;4.80;99.90;;;;;;4970512;28;20034;-87
2021/10/17 05:10:14;;;;;;;18.75;11.93;;;4.80;99.90;;;;;;4982877;28;20035;-86
2021/10/17 05:12:39;;;;;;;22.45;12.68;;;4.70;99.90;;;;;;4957274;28;20062;-87
2021/10/17 05:15:05;;;;;;;24.52;11.85;;;4.70;99.90;;;;;;4963819;28;20065;-86
2021/10/17 05:17:30;;;;;;;25.73;13.95;;;4.60;99.90;;;;;;4966029;28;20030;-87
2021/10/17 05:19:56;;;;;;;52.13;29.00;;;4.70;99.90;;;;;;4969394;28;20668;-86
2021/10/17 05:22:21;;;;;;;21.25;12.52;;;4.90;99.90;;;;;;4970105;28;20030;-87
2021/10/17 05:24:47;;;;;;;22.20;12.63;;;4.80;99.90;;;;;;5001455;28;20121;-85
2021/10/17 05:27:13;;;;;;;17.27;12.25;;;4.90;99.90;;;;;;4996764;28;20057;-86
2021/10/17 05:29:38;;;;;;;23.73;10.77;;;4.90;99.90;;;;;;4968958;28;20100;-87
2021/10/17 05:32:04;;;;;;;20.85;12.73;;;5.00;99.90;;;;;;4947289;28;20494;-87
2021/10/17 05:34:30;;;;;;;27.52;13.95;;;5.10;99.90;;;;;;4951564;28;20551;-87
2021/10/17 05:36:55;;;;;;;23.85;12.52;;;5.00;99.90;;;;;;4950397;28;20426;-87
2021/10/17 05:39:21;;;;;;;25.40;12.57;;;4.90;99.90;;;;;;4982893;28;20022;-86
2021/10/17 05:41:46;;;;;;;22.42;12.63;;;4.90;99.90;;;;;;4981756;28;20498;-86
2021/10/17 05:44:12;;;;;;;21.90;14.63;;;4.90;99.90;;;;;;4966940;28;20022;-86
2021/10/17 05:46:37;;;;;;;24.13;12.68;;;5.00;99.90;;;;;;4963286;28;20532;-86
2021/10/17 05:49:03;;;;;;;24.52;13.55;;;5.00;99.90;;;;;;4947955;28;20538;-85
2021/10/17 05:51:28;;;;;;;25.85;12.90;;;5.00;99.90;;;;;;4964635;28;20027;-85
2021/10/17 05:53:54;;;;;;;23.17;13.27;;;5.00;99.90;;;;;;4964906;28;20494;-86
2021/10/17 05:56:19;;;;;;;23.80;12.88;;;5.10;99.90;;;;;;4963064;28;20077;-86
2021/10/17 05:58:45;;;;;;;15.60;8.48;;;5.10;99.90;;;;;;4987615;28;20129;-87
2021/10/17 06:01:10;;;;;;;12.40;7.88;;;5.20;99.90;;;;;;4966671;28;20042;-86
2021/10/17 06:03:36;;;;;;;20.60;12.02;;;5.30;99.90;;;;;;4985248;28;20069;-86
2021/10/17 06:06:02;;;;;;;27.05;12.63;;;5.30;99.90;;;;;;4950812;28;20065;-86
2021/10/17 06:08:30;;;;;;;18.88;12.65;;;5.30;99.90;;;;;;4951578;28;20030;-85
2021/10/17 06:10:56;;;;;;;22.35;13.52;;;5.20;99.90;;;;;;4968725;28;20487;-86
2021/10/17 06:13:21;;;;;;;18.98;8.77;;;5.20;99.90;;;;;;4984397;28;20201;-85
2021/10/17 06:15:47;;;;;;;16.35;9.48;;;5.20;99.90;;;;;;4970907;28;20038;-86
2021/10/17 06:18:12;;;;;;;20.95;9.52;;;5.30;99.90;;;;;;4998317;28;20057;-86
2021/10/17 06:20:38;;;;;;;25.35;12.25;;;5.40;99.90;;;;;;4964121;28;20249;-86
2021/10/17 06:23:03;;;;;;;21.70;13.60;;;5.40;99.90;;;;;;4955303;28;20084;-86
2021/10/17 06:25:29;;;;;;;26.27;14.00;;;5.30;99.90;;;;;;4953816;28;20038;-86
2021/10/17 06:27:55;;;;;;;29.65;13.70;;;5.30;99.90;;;;;;4954950;28;20117;-86
2021/10/17 06:30:21;;;;;;;21.42;12.02;;;5.40;99.90;;;;;;4968597;28;20361;-86
2021/10/17 06:32:47;;;;;;;14.82;7.88;;;5.40;99.90;;;;;;4968171;28;20076;-86
2021/10/17 06:35:13;;;;;;;9.82;7.40;;;5.50;99.90;;;;;;4974446;28;20030;-84
2021/10/17 06:37:39;;;;;;;13.02;6.75;;;5.60;99.90;;;;;;4983068;28;20054;-86
2021/10/17 06:40:06;;;;;;;15.93;8.82;;;5.70;99.90;;;;;;4968637;28;20026;-86
2021/10/17 06:42:31;;;;;;;21.40;11.00;;;5.70;99.90;;;;;;4963636;28;20391;-86
2021/10/17 06:44:57;;;;;;;20.95;12.50;;;5.70;99.90;;;;;;4963040;28;20022;-87
2021/10/17 06:47:23;;;;;;;22.42;12.32;;;5.50;99.90;;;;;;4954196;28;20045;-86
2021/10/17 06:49:48;;;;;;;23.45;14.88;;;5.50;99.90;;;;;;4955901;28;20463;-86
2021/10/17 06:52:14;;;;;;;19.92;10.80;;;5.60;99.90;;;;;;4953991;28;20027;-86
2021/10/17 06:54:39;;;;;;;20.55;12.80;;;5.70;99.90;;;;;;4964976;28;20161;-86
2021/10/17 06:57:05;;;;;;;21.65;11.25;;;5.70;99.90;;;;;;4969008;28;20053;-86
2021/10/17 06:59:30;;;;;;;29.27;14.07;;;5.80;99.90;;;;;;4967112;28;20037;-86
2021/10/17 07:01:56;;;;;;;24.10;14.65;;;5.80;99.90;;;;;;4953387;28;20034;-87
2021/10/17 07:04:21;;;;;;;26.55;15.32;;;5.80;99.90;;;;;;4953538;28;20038;-86
2021/10/17 07:06:47;;;;;;;27.10;14.35;;;5.80;99.90;;;;;;4986329;28;20034;-86
2021/10/17 07:09:12;;;;;;;28.05;15.35;;;5.80;99.90;;;;;;4974259;28;20030;-86
2021/10/17 07:11:38;;;;;;;21.67;10.98;;;5.90;99.90;;;;;;5005665;28;20058;-86
2021/10/17 07:14:04;;;;;;;17.20;9.52;;;6.00;99.90;;;;;;4968157;28;20038;-87
2021/10/17 07:16:29;;;;;;;20.67;12.00;;;6.10;99.90;;;;;;4964812;28;20362;-86
2021/10/17 07:18:55;;;;;;;20.30;11.40;;;6.10;99.90;;;;;;4965836;28;20121;-86
2021/10/17 07:21:20;;;;;;;19.40;11.98;;;6.20;99.90;;;;;;4983229;28;20716;-85
2021/10/17 07:23:46;;;;;;;24.67;13.13;;;6.20;99.90;;;;;;4959562;28;20057;-87
2021/10/17 07:26:11;;;;;;;15.85;10.95;;;6.20;99.90;;;;;;4953671;28;20405;-87
2021/10/17 07:28:37;;;;;;;20.52;13.80;;;6.30;99.90;;;;;;4999736;28;20022;-86
2021/10/17 07:31:02;;;;;;;23.45;13.15;;;6.30;99.90;;;;;;4972253;28;20034;-87
2021/10/17 07:33:28;;;;;;;33.85;15.13;;;6.20;99.90;;;;;;5001978;28;20033;-87
2021/10/17 07:35:54;;;;;;;26.60;14.60;;;6.40;99.90;;;;;;5003052;28;20037;-87
2021/10/17 07:38:19;;;;;;;26.40;14.15;;;6.40;99.90;;;;;;5002302;28;20486;-87
2021/10/17 07:40:45;;;;;;;12.80;8.25;;;6.50;99.90;;;;;;4983619;28;20493;-86
2021/10/17 07:43:10;;;;;;;13.02;7.55;;;6.50;99.90;;;;;;4999307;28;20482;-87
2021/10/17 07:45:36;;;;;;;27.30;12.98;;;6.60;99.90;;;;;;4985340;28;20030;-87
2021/10/17 07:48:01;;;;;;;17.00;11.38;;;6.70;99.90;;;;;;4979531;28;20467;-86
2021/10/17 07:50:28;;;;;;;17.63;11.65;;;6.70;99.90;;;;;;4977593;28;20056;-87
2021/10/17 07:52:54;;;;;;;21.65;11.35;;;6.80;99.90;;;;;;4996663;28;20033;-87
2021/10/17 07:55:19;;;;;;;12.52;7.70;;;6.80;99.90;;;;;;4996461;28;20482;-87
2021/10/17 07:57:48;;;;;;;13.85;7.85;;;6.90;99.90;;;;;;4979202;28;20034;-87
2021/10/17 08:00:17;;;;;;;12.15;7.15;;;6.90;99.90;;;;;;4994545;28;20442;-87
2021/10/17 08:02:42;;;;;;;10.93;6.25;;;7.00;99.90;;;;;;5005330;28;20038;-86
2021/10/17 08:05:08;;;;;;;14.73;8.95;;;7.00;99.90;;;;;;4984959;28;20041;-86
2021/10/17 08:07:34;;;;;;;15.80;9.02;;;7.10;99.90;;;;;;4989342;28;20027;-88
2021/10/17 08:10:00;;;;;;;17.13;9.00;;;7.10;99.90;;;;;;4990053;28;20026;-87
2021/10/17 08:12:26;;;;;;;18.08;10.75;;;7.20;99.90;;;;;;4995257;28;20065;-88
2021/10/17 08:14:51;;;;;;;22.63;10.70;;;7.30;99.90;;;;;;4971290;28;20045;-88
2021/10/17 08:17:17;;;;;;;25.27;11.77;;;7.40;99.90;;;;;;5003544;28;20030;-88
2021/10/17 08:19:42;;;;;;;22.75;10.35;;;7.50;99.90;;;;;;4988527;28;20041;-87
2021/10/17 08:22:08;;;;;;;21.58;10.38;;;7.50;99.90;;;;;;4988223;28;20030;-87
2021/10/17 08:24:33;;;;;;;18.35;9.02;;;7.70;99.90;;;;;;5005104;28;20034;-88
2021/10/17 08:26:59;;;;;;;13.07;6.72;;;7.70;99.90;;;;;;4988432;28;20089;-87
2021/10/17 08:29:24;;;;;;;19.40;8.88;;;7.70;99.90;;;;;;5014891;28;20027;-87
2021/10/17 08:31:50;;;;;;;11.23;7.07;;;7.70;99.90;;;;;;4985125;28;20049;-87
2021/10/17 08:34:16;;;;;;;14.00;8.32;;;7.90;99.90;;;;;;4966130;28;20031;-87
2021/10/17 08:36:41;;;;;;;10.55;6.35;;;7.90;99.90;;;;;;4963872;28;20122;-88
2021/10/17 08:39:07;;;;;;;10.13;7.03;;;8.00;99.90;;;;;;4965411;28;20023;-87
2021/10/17 08:41:33;;;;;;;15.52;7.15;;;8.10;99.90;;;;;;4967318;28;20058;-88
2021/10/17 08:43:58;;;;;;;16.85;9.50;;;8.20;99.90;;;;;;4969401;28;20038;-88
2021/10/17 08:46:24;;;;;;;12.05;7.38;;;8.30;99.90;;;;;;4996831;28;20037;-88
2021/10/17 08:48:55;;;;;;;13.20;7.45;;;8.40;99.90;;;;;;5023331;28;20032;-88
2021/10/17 08:51:24;;;;;;;18.15;8.27;;;8.50;99.90;;;;;;5006846;28;20033;-87
2021/10/17 08:53:50;;;;;;;13.35;9.10;;;8.60;99.90;;;;;;4972419;28;20484;-89
2021/10/17 08:56:16;;;;;;;15.10;7.78;;;8.80;99.90;;;;;;4975515;28;20032;-89
2021/10/17 08:58:42;;;;;;;13.45;6.28;;;8.80;99.90;;;;;;4986393;28;20148;-88
2021/10/17 09:01:14;;;;;;;17.75;7.65;;;8.90;99.90;;;;;;4970404;28;20037;-87
2021/10/17 09:03:39;;;;;;;14.82;6.00;;;8.90;99.90;;;;;;4945648;28;20395;-87
2021/10/17 09:06:22;;;;;;;20.65;7.03;;;8.90;99.90;;;;;;4962049;28;20042;-88
2021/10/17 09:08:56;;;;;;;13.30;7.13;;;9.10;99.90;;;;;;4958356;28;20130;-88
2021/10/17 09:11:35;;;;;;;13.32;6.05;;;9.40;99.90;;;;;;4986819;28;20041;-88
2021/10/17 09:14:04;;;;;;;14.70;6.75;;;9.60;99.90;;;;;;4952949;28;20113;-88
2021/10/17 09:16:36;;;;;;;16.08;6.63;;;9.50;99.90;;;;;;4975149;28;20030;-88
2021/10/17 09:19:14;;;;;;;13.95;5.90;;;9.80;99.90;;;;;;4944891;28;20042;-87
2021/10/17 09:22:02;;;;;;;11.77;5.40;;;9.90;99.90;;;;;;5000499;28;20039;-88
2021/10/17 09:24:29;;;;;;;13.50;5.70;;;9.80;99.90;;;;;;5019749;28;20029;-88
2021/10/17 09:27:14;;;;;;;12.63;5.32;;;9.90;99.90;;;;;;4991280;28;20038;-88
2021/10/17 09:29:48;;;;;;;8.02;5.35;;;10.00;99.90;;;;;;5020908;28;20125;-86
2021/10/17 09:32:18;;;;;;;10.55;4.80;;;10.10;99.90;;;;;;4990709;28;20045;-86
2021/10/17 09:35:03;;;;;;;11.05;6.25;;;10.20;99.90;;;;;;4985094;28;20101;-85
2021/10/17 09:37:30;;;;;;;15.30;6.38;;;10.50;99.90;;;;;;4969958;28;20053;-87
2021/10/17 09:40:24;;;;;;;16.02;5.43;;;10.70;99.90;;;;;;4984561;28;20031;-87
2021/10/17 09:43:03;;;;;;;9.95;5.20;;;10.90;99.90;;;;;;4998375;28;20038;-88
2021/10/17 09:45:29;;;;;;;12.82;5.47;;;10.90;99.90;;;;;;5002117;28;20033;-88
2021/10/17 09:47:55;;;;;;;16.17;5.15;;;11.40;99.90;;;;;;5008186;28;20494;-87
2021/10/17 09:50:21;;;;;;;11.95;5.63;;;11.60;99.90;;;;;;4991853;28;20033;-87
2021/10/17 09:53:00;;;;;;;15.18;5.18;;;11.70;99.90;;;;;;5004289;28;20037;-87
2021/10/17 09:55:26;;;;;;;15.27;4.63;;;11.70;99.90;;;;;;5023041;28;20026;-88
2021/10/17 09:57:52;;;;;;;8.23;4.32;;;11.60;99.90;;;;;;5004239;28;20705;-88
2021/10/17 10:00:18;;;;;;;10.77;4.65;;;11.60;99.90;;;;;;4984923;28;20034;-88
2021/10/17 10:02:47;;;;;;;14.73;5.07;;;11.80;99.90;;;;;;5009005;28;20034;-88
2021/10/17 10:05:16;;;;;;;10.98;4.78;;;11.90;99.90;;;;;;5005804;28;20042;-87
2021/10/17 10:07:42;;;;;;;13.82;6.20;;;12.00;99.90;;;;;;5008370;28;20221;-88
2021/10/17 10:10:08;;;;;;;9.60;4.50;;;12.50;99.90;;;;;;4975927;28;20030;-87
2021/10/17 10:12:34;;;;;;;7.70;4.85;;;12.50;99.90;;;;;;4988935;28;20030;-87
2021/10/17 10:14:59;;;;;;;8.13;4.82;;;12.60;99.90;;;;;;4999125;28;20747;-88
2021/10/17 10:17:27;;;;;;;10.43;4.80;;;12.60;99.90;;;;;;4988500;28;20022;-86
2021/10/17 10:19:53;;;;;;;10.35;4.53;;;12.50;99.90;;;;;;4974385;28;20054;-87
2021/10/17 10:22:18;;;;;;;10.30;5.07;;;12.50;98.90;;;;;;4970903;28;20050;-88
2021/10/17 10:24:44;;;;;;;13.02;4.70;;;12.60;99.90;;;;;;4972568;28;20114;-88
2021/10/17 10:27:10;;;;;;;9.98;4.43;;;12.90;99.90;;;;;;4983562;28;20034;-87
2021/10/17 10:29:35;;;;;;;7.80;5.18;;;13.10;99.20;;;;;;4984230;28;20491;-88
2021/10/17 10:32:06;;;;;;;10.45;5.05;;;13.30;99.90;;;;;;4972177;28;20037;-90
2021/10/17 10:34:31;;;;;;;12.35;4.47;;;13.30;98.60;;;;;;4968638;28;20026;-87
2021/10/17 10:36:57;;;;;;;9.80;4.55;;;13.60;99.90;;;;;;4998236;28;20125;-89
2021/10/17 10:39:23;;;;;;;10.70;5.20;;;13.90;99.90;;;;;;5000587;28;20034;-86
2021/10/17 10:41:52;;;;;;;13.35;5.05;;;14.00;99.90;;;;;;4971027;28;20066;-89
2021/10/17 10:44:45;;;;;;;7.72;4.50;;;13.90;98.20;;;;;;4988083;28;20031;-89
2021/10/17 10:47:26;;;;;;;12.18;4.90;;;14.00;99.20;;;;;;4969886;28;20041;-87
2021/10/17 10:49:53;;;;;;;11.93;4.90;;;14.20;99.90;;;;;;4970811;28;20037;-85
2021/10/17 10:52:21;;;;;;;8.50;4.10;;;14.50;99.90;;;;;;4954902;28;20445;-87
2021/10/17 10:54:47;;;;;;;12.38;3.80;;;14.70;99.90;;;;;;4983318;28;20775;-88
2021/10/17 10:57:22;;;;;;;11.48;4.57;;;14.50;97.30;;;;;;4971862;28;20117;-88
2021/10/17 11:00:03;;;;;;;7.80;4.20;;;14.90;99.90;;;;;;4968987;28;20054;-89
2021/10/17 11:02:29;;;;;;;7.95;3.67;;;15.10;99.90;;;;;;4972577;28;20554;-89
2021/10/17 11:05:16;;;;;;;5.53;3.33;;;14.90;98.00;;;;;;4961678;28;20118;-88
2021/10/17 11:07:45;;;;;;;10.27;4.25;;;14.90;99.90;;;;;;4985592;28;20044;-87
2021/10/17 11:10:23;;;;;;;9.10;4.00;;;15.30;99.90;;;;;;5018220;28;20026;-89
2021/10/17 11:12:55;;;;;;;9.40;4.15;;;15.20;99.30;;;;;;5005274;28;20058;-89
2021/10/17 11:15:22;;;;;;;8.20;3.78;;;15.30;99.90;;;;;;5011039;28;20058;-89
2021/10/17 11:18:03;;;;;;;10.52;4.53;;;15.40;99.90;;;;;;5011274;28;20520;-89
2021/10/17 11:20:30;;;;;;;11.15;3.47;;;15.50;99.90;;;;;;4975170;28;20057;-89
2021/10/17 11:22:57;;;;;;;7.00;3.28;;;15.60;99.90;;;;;;4967312;28;20038;-89
2021/10/17 11:25:23;;;;;;;7.60;2.83;;;15.70;98.50;;;;;;4988224;28;20030;-88
2021/10/17 11:27:49;;;;;;;7.85;3.20;;;15.50;95.00;;;;;;4974131;28;20080;-88
2021/10/17 11:30:25;;;;;;;11.70;3.30;;;15.40;98.90;;;;;;4988553;28;20035;-89
2021/10/17 11:32:51;;;;;;;5.90;3.13;;;15.40;95.80;;;;;;4969789;28;20094;-90
2021/10/17 11:35:16;;;;;;;7.65;2.92;;;15.70;99.90;;;;;;4956748;28;20129;-88
2021/10/17 11:37:49;;;;;;;6.68;3.45;;;16.10;99.90;;;;;;4979828;28;20509;-89
2021/10/17 11:40:15;;;;;;;5.70;3.15;;;15.90;94.60;;;;;;4997529;28;20550;-90
2021/10/17 11:42:55;;;;;;;8.20;3.22;;;15.70;96.70;;;;;;5021781;28;20109;-89
2021/10/17 11:45:22;;;;;;;9.43;2.83;;;16.20;99.90;;;;;;4971784;28;20441;-90
2021/10/17 11:47:49;;;;;;;6.43;2.67;;;16.20;94.90;;;;;;5002760;28;20069;-89
2021/10/17 11:50:19;;;;;;;6.82;2.90;;;16.00;94.30;;;;;;4974436;28;20423;-90
2021/10/17 11:52:52;;;;;;;6.40;2.58;;;16.10;98.70;;;;;;4992558;28;20031;-90
2021/10/17 11:55:38;;;;;;;7.95;2.65;;;16.20;96.00;;;;;;4982942;28;20030;-89
2021/10/17 11:58:15;;;;;;;6.97;2.72;;;16.10;95.20;;;;;;4999032;28;20026;-88
2021/10/17 12:00:41;;;;;;;6.30;2.40;;;16.20;93.60;;;;;;4968301;28;20054;-88
2021/10/17 12:03:06;;;;;;;3.60;2.00;;;16.30;95.10;;;;;;4967916;28;20120;-90
2021/10/17 12:05:32;;;;;;;5.20;2.15;;;16.30;93.60;;;;;;4954515;28;20066;-86
2021/10/17 12:07:58;;;;;;;5.35;1.75;;;16.10;92.00;;;;;;4990589;28;20038;-89
2021/10/17 12:10:28;;;;;;;6.80;2.17;;;16.30;92.60;;;;;;4981571;28;20419;-88
2021/10/17 12:13:00;;;;;;;5.07;2.08;;;16.40;91.60;;;;;;4966788;28;20089;-88
2021/10/17 12:15:27;;;;;;;5.75;1.77;;;16.40;92.10;;;;;;4987247;28;20686;-89
2021/10/17 12:18:03;;;;;;;1.85;1.35;;;16.40;91.10;;;;;;4983754;28;20022;-88
2021/10/17 12:20:32;;;;;;;3.35;1.88;;;16.40;91.60;;;;;;5021153;28;20611;-90
2021/10/17 12:23:01;;;;;;;5.35;1.67;;;16.70;92.10;;;;;;4997867;28;20501;-87
2021/10/17 12:25:27;;;;;;;4.50;1.60;;;16.80;92.50;;;;;;4987050;28;20196;-88
2021/10/17 12:27:52;;;;;;;2.00;1.50;;;16.60;90.00;;;;;;4994305;28;20114;-87
2021/10/17 12:30:25;;;;;;;2.13;1.60;;;16.70;90.40;;;;;;4962847;28;20102;-86
2021/10/17 12:32:53;;;;;;;3.10;1.60;;;16.80;92.40;;;;;;4968900;28;20027;-86
2021/10/17 12:35:18;;;;;;;4.45;1.50;;;17.00;93.40;;;;;;4983510;28;20034;-86
2021/10/17 12:37:44;;;;;;;4.55;1.40;;;16.90;92.20;;;;;;4999002;28;20034;-86
2021/10/17 12:40:10;;;;;;;4.93;1.63;;;17.00;92.40;;;;;;4980531;28;20497;-87
2021/10/17 12:42:46;;;;;;;4.05;2.25;;;17.00;97.20;;;;;;4960392;28;20042;-86